sensor_id;sensor_type;location;lat;lon;timestamp;P1;durP1;ratioP1;P2;durP2;ratioP2
8632;SDS011;4354;49.832;10.746;2023-05-29T00:00:39;6.27;;;4.57;;
8632;SDS011;4354;49.832;10.746;2023-05-29T00:03:06;6.83;;;4.43;;
8632;SDS011;4354;49.832;10.746;2023-05-29T00:05:35;8.53;;;4.97;;
8632;SDS011;4354;49.832;10.746;2023-05-29T00:08:04;6.67;;;4.63;;
8632;SDS011;4354;49.832;10.746;2023-05-29T00:10:32;6.87;;;4.67;;
8632;SDS011;4354;49.832;10.746;2023-05-29T00:13:01;7.13;;;4.43;;
8632;SDS011;4354;49.832;10.746;2023-05-29T00:15:31;6.37;;;4.60;;
8632;SDS011;4354;49.832;10.746;2023-05-29T00:17:58;7.23;;;4.70;;
8632;SDS011;4354;49.832;10.746;2023-05-29T00:20:25;8.40;;;5.43;;
8632;SDS011;4354;49.832;10.746;2023-05-29T00:22:52;6.23;;;4.47;;
8632;SDS011;4354;49.832;10.746;2023-05-29T00:25:20;9.33;;;4.90;;
8632;SDS011;4354;49.832;10.746;2023-05-29T00:27:47;7.20;;;4.57;;
8632;SDS011;4354;49.832;10.746;2023-05-29T00:30:14;5.77;;;4.57;;
8632;SDS011;4354;49.832;10.746;2023-05-29T00:32:41;6.97;;;4.70;;
8632;SDS011;4354;49.832;10.746;2023-05-29T00:35:09;5.20;;;4.57;;
8632;SDS011;4354;49.832;10.746;2023-05-29T00:37:36;8.43;;;4.77;;
8632;SDS011;4354;49.832;10.746;2023-05-29T00:40:04;6.60;;;4.60;;
8632;SDS011;4354;49.832;10.746;2023-05-29T00:42:33;8.13;;;4.70;;
8632;SDS011;4354;49.832;10.746;2023-05-29T00:45:00;6.03;;;4.40;;
8632;SDS011;4354;49.832;10.746;2023-05-29T00:47:27;6.17;;;4.30;;
8632;SDS011;4354;49.832;10.746;2023-05-29T00:49:55;7.97;;;4.67;;
8632;SDS011;4354;49.832;10.746;2023-05-29T00:52:23;5.57;;;4.30;;
8632;SDS011;4354;49.832;10.746;2023-05-29T00:54:51;7.50;;;4.93;;
8632;SDS011;4354;49.832;10.746;2023-05-29T00:57:18;5.50;;;4.10;;
8632;SDS011;4354;49.832;10.746;2023-05-29T00:59:46;6.90;;;4.57;;
8632;SDS011;4354;49.832;10.746;2023-05-29T01:02:14;6.07;;;4.87;;
8632;SDS011;4354;49.832;10.746;2023-05-29T01:04:44;7.73;;;4.80;;
8632;SDS011;4354;49.832;10.746;2023-05-29T01:07:11;7.40;;;4.73;;
8632;SDS011;4354;49.832;10.746;2023-05-29T01:09:40;9.37;;;5.23;;
8632;SDS011;4354;49.832;10.746;2023-05-29T01:12:32;6.33;;;4.27;;
8632;SDS011;4354;49.832;10.746;2023-05-29T01:23:23;6.03;;;4.47;;
8632;SDS011;4354;49.832;10.746;2023-05-29T01:28:31;7.37;;;4.50;;
8632;SDS011;4354;49.832;10.746;2023-05-29T01:30:59;6.67;;;4.50;;
8632;SDS011;4354;49.832;10.746;2023-05-29T01:33:27;5.57;;;4.37;;
8632;SDS011;4354;49.832;10.746;2023-05-29T01:35:54;7.03;;;4.57;;
8632;SDS011;4354;49.832;10.746;2023-05-29T01:38:22;5.23;;;4.63;;
8632;SDS011;4354;49.832;10.746;2023-05-29T01:40:49;6.30;;;4.57;;
8632;SDS011;4354;49.832;10.746;2023-05-29T01:43:16;8.90;;;4.27;;
8632;SDS011;4354;49.832;10.746;2023-05-29T01:45:44;7.87;;;4.80;;
8632;SDS011;4354;49.832;10.746;2023-05-29T01:48:11;5.43;;;4.13;;
8632;SDS011;4354;49.832;10.746;2023-05-29T01:50:38;7.47;;;5.00;;
8632;SDS011;4354;49.832;10.746;2023-05-29T01:53:10;6.57;;;4.47;;
8632;SDS011;4354;49.832;10.746;2023-05-29T01:55:37;7.43;;;4.20;;
8632;SDS011;4354;49.832;10.746;2023-05-29T01:58:04;8.87;;;4.40;;
8632;SDS011;4354;49.832;10.746;2023-05-29T02:00:32;9.43;;;5.13;;
8632;SDS011;4354;49.832;10.746;2023-05-29T02:02:59;7.83;;;4.90;;
8632;SDS011;4354;49.832;10.746;2023-05-29T02:05:28;10.27;;;4.90;;
8632;SDS011;4354;49.832;10.746;2023-05-29T02:07:55;7.17;;;4.17;;
8632;SDS011;4354;49.832;10.746;2023-05-29T02:10:22;5.83;;;4.63;;
8632;SDS011;4354;49.832;10.746;2023-05-29T02:12:49;7.40;;;5.60;;
8632;SDS011;4354;49.832;10.746;2023-05-29T02:15:17;8.10;;;5.03;;
8632;SDS011;4354;49.832;10.746;2023-05-29T02:17:44;7.93;;;5.23;;
8632;SDS011;4354;49.832;10.746;2023-05-29T02:20:11;8.50;;;4.40;;
8632;SDS011;4354;49.832;10.746;2023-05-29T02:22:38;8.50;;;5.30;;
8632;SDS011;4354;49.832;10.746;2023-05-29T02:25:06;5.97;;;4.50;;
8632;SDS011;4354;49.832;10.746;2023-05-29T02:27:33;6.27;;;4.57;;
8632;SDS011;4354;49.832;10.746;2023-05-29T02:30:00;6.43;;;4.40;;
8632;SDS011;4354;49.832;10.746;2023-05-29T02:32:27;5.90;;;4.73;;
8632;SDS011;4354;49.832;10.746;2023-05-29T02:34:55;5.73;;;4.60;;
8632;SDS011;4354;49.832;10.746;2023-05-29T02:37:22;5.73;;;3.90;;
8632;SDS011;4354;49.832;10.746;2023-05-29T02:39:52;8.83;;;4.70;;
8632;SDS011;4354;49.832;10.746;2023-05-29T02:42:19;6.17;;;4.47;;
8632;SDS011;4354;49.832;10.746;2023-05-29T02:44:46;5.77;;;4.47;;
8632;SDS011;4354;49.832;10.746;2023-05-29T02:47:13;7.40;;;4.37;;
8632;SDS011;4354;49.832;10.746;2023-05-29T02:49:40;5.80;;;4.77;;
8632;SDS011;4354;49.832;10.746;2023-05-29T02:52:08;7.30;;;4.20;;
8632;SDS011;4354;49.832;10.746;2023-05-29T02:54:35;5.23;;;4.10;;
8632;SDS011;4354;49.832;10.746;2023-05-29T02:57:03;8.20;;;4.60;;
8632;SDS011;4354;49.832;10.746;2023-05-29T02:59:31;6.53;;;4.10;;
8632;SDS011;4354;49.832;10.746;2023-05-29T03:01:58;8.90;;;4.50;;
8632;SDS011;4354;49.832;10.746;2023-05-29T03:04:26;7.93;;;4.60;;
8632;SDS011;4354;49.832;10.746;2023-05-29T03:06:53;5.77;;;4.03;;
8632;SDS011;4354;49.832;10.746;2023-05-29T03:09:20;7.33;;;4.40;;
8632;SDS011;4354;49.832;10.746;2023-05-29T03:11:47;5.77;;;4.43;;
8632;SDS011;4354;49.832;10.746;2023-05-29T03:14:16;5.63;;;4.33;;
8632;SDS011;4354;49.832;10.746;2023-05-29T03:16:44;5.43;;;4.37;;
8632;SDS011;4354;49.832;10.746;2023-05-29T03:19:12;4.93;;;4.30;;
8632;SDS011;4354;49.832;10.746;2023-05-29T03:21:39;7.93;;;4.87;;
8632;SDS011;4354;49.832;10.746;2023-05-29T03:24:06;6.43;;;4.80;;
8632;SDS011;4354;49.832;10.746;2023-05-29T03:26:33;6.83;;;4.63;;
8632;SDS011;4354;49.832;10.746;2023-05-29T03:29:03;6.80;;;4.40;;
8632;SDS011;4354;49.832;10.746;2023-05-29T03:31:31;6.13;;;4.77;;
8632;SDS011;4354;49.832;10.746;2023-05-29T03:33:59;5.07;;;4.50;;
8632;SDS011;4354;49.832;10.746;2023-05-29T03:36:26;6.67;;;4.77;;
8632;SDS011;4354;49.832;10.746;2023-05-29T03:38:53;6.43;;;4.43;;
8632;SDS011;4354;49.832;10.746;2023-05-29T03:41:20;6.73;;;4.70;;
8632;SDS011;4354;49.832;10.746;2023-05-29T03:43:47;6.57;;;5.23;;
8632;SDS011;4354;49.832;10.746;2023-05-29T03:46:15;5.93;;;4.17;;
8632;SDS011;4354;49.832;10.746;2023-05-29T03:48:42;6.00;;;4.57;;
8632;SDS011;4354;49.832;10.746;2023-05-29T03:51:09;6.83;;;4.33;;
8632;SDS011;4354;49.832;10.746;2023-05-29T03:53:36;8.03;;;4.63;;
8632;SDS011;4354;49.832;10.746;2023-05-29T03:56:04;6.33;;;4.70;;
8632;SDS011;4354;49.832;10.746;2023-05-29T03:58:31;6.90;;;4.87;;
8632;SDS011;4354;49.832;10.746;2023-05-29T04:00:59;6.67;;;4.43;;
8632;SDS011;4354;49.832;10.746;2023-05-29T04:03:26;6.63;;;4.47;;
8632;SDS011;4354;49.832;10.746;2023-05-29T04:05:54;6.17;;;4.73;;
8632;SDS011;4354;49.832;10.746;2023-05-29T04:08:22;6.00;;;4.20;;
8632;SDS011;4354;49.832;10.746;2023-05-29T04:10:49;6.77;;;4.40;;
8632;SDS011;4354;49.832;10.746;2023-05-29T04:13:20;4.80;;;4.30;;
8632;SDS011;4354;49.832;10.746;2023-05-29T04:15:47;6.80;;;4.50;;
8632;SDS011;4354;49.832;10.746;2023-05-29T04:18:14;6.87;;;4.40;;
8632;SDS011;4354;49.832;10.746;2023-05-29T04:20:42;8.53;;;4.23;;
8632;SDS011;4354;49.832;10.746;2023-05-29T04:23:12;5.10;;;3.77;;
8632;SDS011;4354;49.832;10.746;2023-05-29T04:25:40;6.10;;;4.50;;
8632;SDS011;4354;49.832;10.746;2023-05-29T04:28:07;5.67;;;4.07;;
8632;SDS011;4354;49.832;10.746;2023-05-29T04:30:36;7.60;;;4.00;;
8632;SDS011;4354;49.832;10.746;2023-05-29T04:33:05;6.50;;;4.33;;
8632;SDS011;4354;49.832;10.746;2023-05-29T04:35:32;8.97;;;3.90;;
8632;SDS011;4354;49.832;10.746;2023-05-29T04:38:01;6.90;;;4.67;;
8632;SDS011;4354;49.832;10.746;2023-05-29T04:40:28;7.10;;;3.70;;
8632;SDS011;4354;49.832;10.746;2023-05-29T04:42:57;5.87;;;4.10;;
8632;SDS011;4354;49.832;10.746;2023-05-29T04:45:26;5.70;;;4.33;;
8632;SDS011;4354;49.832;10.746;2023-05-29T04:47:54;5.33;;;3.73;;
8632;SDS011;4354;49.832;10.746;2023-05-29T04:50:22;4.77;;;4.13;;
8632;SDS011;4354;49.832;10.746;2023-05-29T04:52:55;6.10;;;4.20;;
8632;SDS011;4354;49.832;10.746;2023-05-29T04:55:23;5.53;;;4.43;;
8632;SDS011;4354;49.832;10.746;2023-05-29T04:57:50;7.13;;;4.33;;
8632;SDS011;4354;49.832;10.746;2023-05-29T05:00:18;5.23;;;3.93;;
8632;SDS011;4354;49.832;10.746;2023-05-29T05:02:45;7.87;;;4.37;;
8632;SDS011;4354;49.832;10.746;2023-05-29T05:05:13;5.90;;;4.13;;
8632;SDS011;4354;49.832;10.746;2023-05-29T05:07:40;5.53;;;4.03;;
8632;SDS011;4354;49.832;10.746;2023-05-29T05:10:07;6.63;;;4.17;;
8632;SDS011;4354;49.832;10.746;2023-05-29T05:12:34;8.23;;;4.30;;
8632;SDS011;4354;49.832;10.746;2023-05-29T05:15:03;6.37;;;4.10;;
8632;SDS011;4354;49.832;10.746;2023-05-29T05:17:30;8.83;;;4.20;;
8632;SDS011;4354;49.832;10.746;2023-05-29T05:19:57;5.87;;;4.47;;
8632;SDS011;4354;49.832;10.746;2023-05-29T05:22:25;5.83;;;4.07;;
8632;SDS011;4354;49.832;10.746;2023-05-29T05:24:52;6.57;;;4.70;;
8632;SDS011;4354;49.832;10.746;2023-05-29T05:27:20;6.63;;;4.43;;
8632;SDS011;4354;49.832;10.746;2023-05-29T05:29:47;6.87;;;4.67;;
8632;SDS011;4354;49.832;10.746;2023-05-29T05:32:14;5.43;;;4.03;;
8632;SDS011;4354;49.832;10.746;2023-05-29T05:34:42;5.53;;;4.40;;
8632;SDS011;4354;49.832;10.746;2023-05-29T05:37:09;6.63;;;4.40;;
8632;SDS011;4354;49.832;10.746;2023-05-29T05:39:36;5.17;;;4.07;;
8632;SDS011;4354;49.832;10.746;2023-05-29T05:42:03;6.20;;;4.07;;
8632;SDS011;4354;49.832;10.746;2023-05-29T05:44:31;6.33;;;4.30;;
8632;SDS011;4354;49.832;10.746;2023-05-29T05:46:58;4.97;;;4.13;;
8632;SDS011;4354;49.832;10.746;2023-05-29T05:49:26;6.70;;;4.23;;
8632;SDS011;4354;49.832;10.746;2023-05-29T05:51:53;6.07;;;4.03;;
8632;SDS011;4354;49.832;10.746;2023-05-29T05:54:20;6.33;;;4.10;;
8632;SDS011;4354;49.832;10.746;2023-05-29T05:56:47;5.87;;;4.03;;
8632;SDS011;4354;49.832;10.746;2023-05-29T05:59:14;4.77;;;4.10;;
8632;SDS011;4354;49.832;10.746;2023-05-29T06:01:42;5.63;;;3.93;;
8632;SDS011;4354;49.832;10.746;2023-05-29T06:04:09;4.90;;;3.80;;
8632;SDS011;4354;49.832;10.746;2023-05-29T06:06:36;6.67;;;3.67;;
8632;SDS011;4354;49.832;10.746;2023-05-29T06:09:03;4.00;;;3.57;;
8632;SDS011;4354;49.832;10.746;2023-05-29T06:11:31;5.77;;;4.10;;
8632;SDS011;4354;49.832;10.746;2023-05-29T06:13:58;6.07;;;3.80;;
8632;SDS011;4354;49.832;10.746;2023-05-29T06:16:25;3.60;;;3.23;;
8632;SDS011;4354;49.832;10.746;2023-05-29T06:18:53;5.80;;;3.93;;
8632;SDS011;4354;49.832;10.746;2023-05-29T06:21:20;4.20;;;3.27;;
8632;SDS011;4354;49.832;10.746;2023-05-29T06:23:49;7.10;;;3.33;;
8632;SDS011;4354;49.832;10.746;2023-05-29T06:26:16;4.87;;;2.97;;
8632;SDS011;4354;49.832;10.746;2023-05-29T06:28:44;5.00;;;3.17;;
8632;SDS011;4354;49.832;10.746;2023-05-29T06:31:11;4.97;;;2.83;;
8632;SDS011;4354;49.832;10.746;2023-05-29T06:33:38;3.25;;;2.90;;
8632;SDS011;4354;49.832;10.746;2023-05-29T06:36:06;3.25;;;2.70;;
8632;SDS011;4354;49.832;10.746;2023-05-29T06:38:33;4.32;;;2.85;;
8632;SDS011;4354;49.832;10.746;2023-05-29T06:41:00;3.78;;;2.97;;
8632;SDS011;4354;49.832;10.746;2023-05-29T06:43:28;3.90;;;2.75;;
8632;SDS011;4354;49.832;10.746;2023-05-29T06:45:55;4.20;;;2.80;;
8632;SDS011;4354;49.832;10.746;2023-05-29T06:48:24;2.65;;;2.40;;
8632;SDS011;4354;49.832;10.746;2023-05-29T06:50:51;4.57;;;3.03;;
8632;SDS011;4354;49.832;10.746;2023-05-29T06:53:20;3.45;;;3.15;;
8632;SDS011;4354;49.832;10.746;2023-05-29T06:55:47;4.65;;;2.65;;
8632;SDS011;4354;49.832;10.746;2023-05-29T06:58:14;3.78;;;3.08;;
8632;SDS011;4354;49.832;10.746;2023-05-29T07:00:41;3.25;;;2.63;;
8632;SDS011;4354;49.832;10.746;2023-05-29T07:03:09;5.60;;;3.42;;
8632;SDS011;4354;49.832;10.746;2023-05-29T07:05:36;3.05;;;2.70;;
8632;SDS011;4354;49.832;10.746;2023-05-29T07:08:03;3.47;;;2.85;;
8632;SDS011;4354;49.832;10.746;2023-05-29T07:10:31;3.88;;;2.95;;
8632;SDS011;4354;49.832;10.746;2023-05-29T07:12:58;3.40;;;2.95;;
8632;SDS011;4354;49.832;10.746;2023-05-29T07:15:25;3.78;;;2.80;;
8632;SDS011;4354;49.832;10.746;2023-05-29T07:17:52;3.15;;;2.85;;
8632;SDS011;4354;49.832;10.746;2023-05-29T07:20:19;3.83;;;2.88;;
8632;SDS011;4354;49.832;10.746;2023-05-29T07:22:47;4.65;;;3.10;;
8632;SDS011;4354;49.832;10.746;2023-05-29T07:25:14;4.60;;;3.22;;
8632;SDS011;4354;49.832;10.746;2023-05-29T07:27:41;3.03;;;2.83;;
8632;SDS011;4354;49.832;10.746;2023-05-29T07:30:08;3.90;;;2.78;;
8632;SDS011;4354;49.832;10.746;2023-05-29T07:32:36;3.05;;;2.53;;
8632;SDS011;4354;49.832;10.746;2023-05-29T07:35:03;3.80;;;3.03;;
8632;SDS011;4354;49.832;10.746;2023-05-29T07:37:31;5.35;;;2.75;;
8632;SDS011;4354;49.832;10.746;2023-05-29T07:39:57;3.47;;;3.10;;
8632;SDS011;4354;49.832;10.746;2023-05-29T07:42:24;3.63;;;2.63;;
8632;SDS011;4354;49.832;10.746;2023-05-29T07:44:51;5.18;;;3.22;;
8632;SDS011;4354;49.832;10.746;2023-05-29T07:47:18;3.47;;;2.95;;
8632;SDS011;4354;49.832;10.746;2023-05-29T07:49:45;3.60;;;2.72;;
8632;SDS011;4354;49.832;10.746;2023-05-29T07:52:11;5.20;;;3.10;;
8632;SDS011;4354;49.832;10.746;2023-05-29T07:54:38;3.47;;;2.90;;
8632;SDS011;4354;49.832;10.746;2023-05-29T07:57:05;3.30;;;3.03;;
8632;SDS011;4354;49.832;10.746;2023-05-29T07:59:37;5.18;;;3.05;;
8632;SDS011;4354;49.832;10.746;2023-05-29T08:02:05;3.50;;;2.65;;
8632;SDS011;4354;49.832;10.746;2023-05-29T08:04:32;3.25;;;2.95;;
8632;SDS011;4354;49.832;10.746;2023-05-29T08:07:00;4.00;;;2.78;;
8632;SDS011;4354;49.832;10.746;2023-05-29T08:09:27;3.00;;;2.70;;
8632;SDS011;4354;49.832;10.746;2023-05-29T08:11:54;3.88;;;3.25;;
8632;SDS011;4354;49.832;10.746;2023-05-29T08:14:21;5.95;;;3.08;;
8632;SDS011;4354;49.832;10.746;2023-05-29T08:16:49;4.65;;;2.90;;
8632;SDS011;4354;49.832;10.746;2023-05-29T08:19:17;3.22;;;2.75;;
8632;SDS011;4354;49.832;10.746;2023-05-29T08:21:43;3.80;;;3.03;;
8632;SDS011;4354;49.832;10.746;2023-05-29T08:24:10;4.65;;;3.00;;
8632;SDS011;4354;49.832;10.746;2023-05-29T08:26:37;5.63;;;2.75;;
8632;SDS011;4354;49.832;10.746;2023-05-29T08:29:04;4.30;;;3.05;;
8632;SDS011;4354;49.832;10.746;2023-05-29T08:31:32;4.22;;;2.90;;
8632;SDS011;4354;49.832;10.746;2023-05-29T08:33:59;3.50;;;2.90;;
8632;SDS011;4354;49.832;10.746;2023-05-29T08:36:26;4.07;;;2.85;;
8632;SDS011;4354;49.832;10.746;2023-05-29T08:38:53;3.92;;;3.10;;
8632;SDS011;4354;49.832;10.746;2023-05-29T08:44:19;3.22;;;2.90;;
8632;SDS011;4354;49.832;10.746;2023-05-29T08:46:54;4.15;;;3.15;;
8632;SDS011;4354;49.832;10.746;2023-05-29T08:49:22;3.22;;;2.90;;
8632;SDS011;4354;49.832;10.746;2023-05-29T08:51:50;3.63;;;3.03;;
8632;SDS011;4354;49.832;10.746;2023-05-29T08:54:23;4.25;;;2.80;;
8632;SDS011;4354;49.832;10.746;2023-05-29T08:56:51;6.90;;;3.15;;
8632;SDS011;4354;49.832;10.746;2023-05-29T08:59:18;3.05;;;2.85;;
8632;SDS011;4354;49.832;10.746;2023-05-29T09:01:46;4.90;;;3.22;;
8632;SDS011;4354;49.832;10.746;2023-05-29T09:04:13;3.92;;;2.90;;
8632;SDS011;4354;49.832;10.746;2023-05-29T09:06:40;3.72;;;3.10;;
8632;SDS011;4354;49.832;10.746;2023-05-29T09:09:07;3.97;;;2.90;;
8632;SDS011;4354;49.832;10.746;2023-05-29T09:11:34;4.05;;;3.03;;
8632;SDS011;4354;49.832;10.746;2023-05-29T09:14:01;4.60;;;3.53;;
8632;SDS011;4354;49.832;10.746;2023-05-29T09:16:28;4.30;;;3.10;;
8632;SDS011;4354;49.832;10.746;2023-05-29T09:19:05;3.38;;;2.50;;
8632;SDS011;4354;49.832;10.746;2023-05-29T09:21:38;3.50;;;2.88;;
8632;SDS011;4354;49.832;10.746;2023-05-29T09:24:05;5.82;;;3.10;;
8632;SDS011;4354;49.832;10.746;2023-05-29T09:26:32;3.72;;;3.00;;
8632;SDS011;4354;49.832;10.746;2023-05-29T09:28:59;3.50;;;2.70;;
8632;SDS011;4354;49.832;10.746;2023-05-29T09:31:27;4.47;;;2.88;;
8632;SDS011;4354;49.832;10.746;2023-05-29T09:33:55;4.82;;;3.03;;
8632;SDS011;4354;49.832;10.746;2023-05-29T09:36:22;6.05;;;3.10;;
8632;SDS011;4354;49.832;10.746;2023-05-29T09:38:49;4.93;;;3.22;;
8632;SDS011;4354;49.832;10.746;2023-05-29T09:41:24;3.13;;;2.83;;
8632;SDS011;4354;49.832;10.746;2023-05-29T09:43:52;3.75;;;2.55;;
8632;SDS011;4354;49.832;10.746;2023-05-29T09:46:22;3.80;;;3.00;;
8632;SDS011;4354;49.832;10.746;2023-05-29T09:48:49;4.05;;;3.10;;
8632;SDS011;4354;49.832;10.746;2023-05-29T09:51:19;4.47;;;3.17;;
8632;SDS011;4354;49.832;10.746;2023-05-29T09:53:48;4.18;;;3.10;;
8632;SDS011;4354;49.832;10.746;2023-05-29T09:56:16;3.15;;;2.90;;
8632;SDS011;4354;49.832;10.746;2023-05-29T09:58:44;2.70;;;2.50;;
8632;SDS011;4354;49.832;10.746;2023-05-29T10:01:13;4.30;;;3.25;;
8632;SDS011;4354;49.832;10.746;2023-05-29T10:03:43;4.50;;;3.00;;
8632;SDS011;4354;49.832;10.746;2023-05-29T10:06:10;5.28;;;3.05;;
8632;SDS011;4354;49.832;10.746;2023-05-29T10:08:42;4.25;;;2.85;;
8632;SDS011;4354;49.832;10.746;2023-05-29T10:11:16;3.95;;;3.40;;
8632;SDS011;4354;49.832;10.746;2023-05-29T10:13:52;4.63;;;3.03;;
8632;SDS011;4354;49.832;10.746;2023-05-29T10:16:20;5.13;;;2.75;;
8632;SDS011;4354;49.832;10.746;2023-05-29T10:18:55;6.22;;;3.47;;
8632;SDS011;4354;49.832;10.746;2023-05-29T10:21:27;4.28;;;3.47;;
8632;SDS011;4354;49.832;10.746;2023-05-29T10:23:57;3.55;;;2.83;;
8632;SDS011;4354;49.832;10.746;2023-05-29T10:26:25;6.80;;;3.10;;
8632;SDS011;4354;49.832;10.746;2023-05-29T10:34:59;3.72;;;3.30;;
8632;SDS011;4354;49.832;10.746;2023-05-29T10:40:08;3.03;;;2.72;;
8632;SDS011;4354;49.832;10.746;2023-05-29T10:42:46;4.15;;;3.20;;
8632;SDS011;4354;49.832;10.746;2023-05-29T10:47:55;4.00;;;3.05;;
8632;SDS011;4354;49.832;10.746;2023-05-29T10:50:46;6.22;;;3.30;;
8632;SDS011;4354;49.832;10.746;2023-05-29T10:53:17;5.38;;;3.22;;
8632;SDS011;4354;49.832;10.746;2023-05-29T10:55:48;4.38;;;2.97;;
8632;SDS011;4354;49.832;10.746;2023-05-29T10:58:23;5.82;;;3.03;;
8632;SDS011;4354;49.832;10.746;2023-05-29T11:00:52;5.45;;;3.53;;
8632;SDS011;4354;49.832;10.746;2023-05-29T11:03:23;4.72;;;3.22;;
8632;SDS011;4354;49.832;10.746;2023-05-29T11:06:04;3.15;;;2.90;;
8632;SDS011;4354;49.832;10.746;2023-05-29T11:11:29;5.63;;;2.90;;
8632;SDS011;4354;49.832;10.746;2023-05-29T11:14:06;4.07;;;2.85;;
8632;SDS011;4354;49.832;10.746;2023-05-29T11:19:09;3.25;;;2.95;;
8632;SDS011;4354;49.832;10.746;2023-05-29T11:24:15;4.63;;;3.60;;
8632;SDS011;4354;49.832;10.746;2023-05-29T11:26:51;4.15;;;3.05;;
8632;SDS011;4354;49.832;10.746;2023-05-29T11:29:22;7.20;;;3.25;;
8632;SDS011;4354;49.832;10.746;2023-05-29T11:31:58;4.72;;;3.47;;
8632;SDS011;4354;49.832;10.746;2023-05-29T11:34:30;5.03;;;3.42;;
8632;SDS011;4354;49.832;10.746;2023-05-29T11:36:59;3.92;;;3.47;;
8632;SDS011;4354;49.832;10.746;2023-05-29T11:39:26;4.50;;;2.92;;
8632;SDS011;4354;49.832;10.746;2023-05-29T11:41:54;4.28;;;3.33;;
8632;SDS011;4354;49.832;10.746;2023-05-29T11:44:23;5.72;;;3.38;;
8632;SDS011;4354;49.832;10.746;2023-05-29T11:47:01;3.63;;;2.95;;
8632;SDS011;4354;49.832;10.746;2023-05-29T11:49:35;3.78;;;3.15;;
8632;SDS011;4354;49.832;10.746;2023-05-29T11:52:07;4.28;;;2.88;;
8632;SDS011;4354;49.832;10.746;2023-05-29T11:54:41;3.30;;;3.00;;
8632;SDS011;4354;49.832;10.746;2023-05-29T11:57:17;6.22;;;2.90;;
8632;SDS011;4354;49.832;10.746;2023-05-29T11:59:45;3.72;;;3.13;;
8632;SDS011;4354;49.832;10.746;2023-05-29T12:02:12;3.45;;;2.95;;
8632;SDS011;4354;49.832;10.746;2023-05-29T12:04:39;3.67;;;2.90;;
8632;SDS011;4354;49.832;10.746;2023-05-29T12:07:18;3.58;;;2.83;;
8632;SDS011;4354;49.832;10.746;2023-05-29T12:09:45;3.33;;;2.80;;
8632;SDS011;4354;49.832;10.746;2023-05-29T12:12:13;3.63;;;2.80;;
8632;SDS011;4354;49.832;10.746;2023-05-29T12:14:40;4.40;;;2.75;;
8632;SDS011;4354;49.832;10.746;2023-05-29T12:17:07;3.60;;;3.13;;
8632;SDS011;4354;49.832;10.746;2023-05-29T12:19:35;4.65;;;2.83;;
8632;SDS011;4354;49.832;10.746;2023-05-29T12:22:02;5.13;;;3.00;;
8632;SDS011;4354;49.832;10.746;2023-05-29T12:24:29;5.32;;;3.13;;
8632;SDS011;4354;49.832;10.746;2023-05-29T12:27:08;3.75;;;2.67;;
8632;SDS011;4354;49.832;10.746;2023-05-29T12:29:35;6.50;;;2.70;;
8632;SDS011;4354;49.832;10.746;2023-05-29T12:32:02;4.55;;;2.60;;
8632;SDS011;4354;49.832;10.746;2023-05-29T12:34:33;4.78;;;3.30;;
8632;SDS011;4354;49.832;10.746;2023-05-29T12:37:08;5.53;;;3.13;;
8632;SDS011;4354;49.832;10.746;2023-05-29T12:39:39;4.45;;;3.38;;
8632;SDS011;4354;49.832;10.746;2023-05-29T12:42:06;5.63;;;3.60;;
8632;SDS011;4354;49.832;10.746;2023-05-29T12:44:33;6.30;;;3.25;;
8632;SDS011;4354;49.832;10.746;2023-05-29T12:47:00;6.50;;;3.53;;
8632;SDS011;4354;49.832;10.746;2023-05-29T12:49:27;4.50;;;3.35;;
8632;SDS011;4354;49.832;10.746;2023-05-29T12:51:55;6.47;;;2.83;;
8632;SDS011;4354;49.832;10.746;2023-05-29T12:54:33;4.75;;;3.10;;
8632;SDS011;4354;49.832;10.746;2023-05-29T12:57:00;3.97;;;3.17;;
8632;SDS011;4354;49.832;10.746;2023-05-29T12:59:27;5.07;;;3.15;;
8632;SDS011;4354;49.832;10.746;2023-05-29T13:01:54;3.67;;;3.30;;
8632;SDS011;4354;49.832;10.746;2023-05-29T13:04:21;3.58;;;2.80;;
8632;SDS011;4354;49.832;10.746;2023-05-29T13:06:48;3.70;;;3.08;;
8632;SDS011;4354;49.832;10.746;2023-05-29T13:09:15;3.65;;;3.00;;
8632;SDS011;4354;49.832;10.746;2023-05-29T13:11:42;3.85;;;2.72;;
8632;SDS011;4354;49.832;10.746;2023-05-29T13:14:09;7.40;;;3.33;;
8632;SDS011;4354;49.832;10.746;2023-05-29T13:16:36;5.78;;;3.28;;
8632;SDS011;4354;49.832;10.746;2023-05-29T13:19:03;4.50;;;3.15;;
8632;SDS011;4354;49.832;10.746;2023-05-29T13:21:29;3.88;;;2.95;;
8632;SDS011;4354;49.832;10.746;2023-05-29T13:23:56;4.47;;;3.20;;
8632;SDS011;4354;49.832;10.746;2023-05-29T13:26:23;6.72;;;3.17;;
8632;SDS011;4354;49.832;10.746;2023-05-29T13:28:50;3.75;;;2.83;;
8632;SDS011;4354;49.832;10.746;2023-05-29T13:31:18;6.75;;;3.42;;
8632;SDS011;4354;49.832;10.746;2023-05-29T13:33:47;3.30;;;3.00;;
8632;SDS011;4354;49.832;10.746;2023-05-29T13:36:15;4.28;;;2.92;;
8632;SDS011;4354;49.832;10.746;2023-05-29T13:38:41;5.68;;;3.33;;
8632;SDS011;4354;49.832;10.746;2023-05-29T13:41:10;7.32;;;2.97;;
8632;SDS011;4354;49.832;10.746;2023-05-29T13:43:37;4.72;;;3.28;;
8632;SDS011;4354;49.832;10.746;2023-05-29T13:46:10;5.97;;;3.22;;
8632;SDS011;4354;49.832;10.746;2023-05-29T13:48:37;3.58;;;3.28;;
8632;SDS011;4354;49.832;10.746;2023-05-29T13:51:04;3.60;;;2.90;;
8632;SDS011;4354;49.832;10.746;2023-05-29T13:53:32;3.50;;;2.95;;
8632;SDS011;4354;49.832;10.746;2023-05-29T13:55:59;5.13;;;3.20;;
8632;SDS011;4354;49.832;10.746;2023-05-29T13:58:25;5.68;;;3.10;;
8632;SDS011;4354;49.832;10.746;2023-05-29T14:00:52;4.78;;;3.35;;
8632;SDS011;4354;49.832;10.746;2023-05-29T14:03:20;5.50;;;3.22;;
8632;SDS011;4354;49.832;10.746;2023-05-29T14:05:50;5.65;;;3.17;;
8632;SDS011;4354;49.832;10.746;2023-05-29T14:08:17;4.32;;;3.30;;
8632;SDS011;4354;49.832;10.746;2023-05-29T14:10:44;3.63;;;3.33;;
8632;SDS011;4354;49.832;10.746;2023-05-29T14:13:11;3.25;;;2.95;;
8632;SDS011;4354;49.832;10.746;2023-05-29T14:15:37;5.03;;;3.15;;
8632;SDS011;4354;49.832;10.746;2023-05-29T14:18:06;6.10;;;3.33;;
8632;SDS011;4354;49.832;10.746;2023-05-29T14:20:34;4.78;;;3.08;;
8632;SDS011;4354;49.832;10.746;2023-05-29T14:23:01;5.57;;;3.10;;
8632;SDS011;4354;49.832;10.746;2023-05-29T14:25:28;7.20;;;3.25;;
8632;SDS011;4354;49.832;10.746;2023-05-29T14:27:55;4.28;;;3.20;;
8632;SDS011;4354;49.832;10.746;2023-05-29T14:30:22;4.57;;;3.40;;
8632;SDS011;4354;49.832;10.746;2023-05-29T14:32:49;6.43;;;3.72;;
8632;SDS011;4354;49.832;10.746;2023-05-29T14:35:17;5.03;;;3.30;;
8632;SDS011;4354;49.832;10.746;2023-05-29T14:37:43;7.70;;;3.22;;
8632;SDS011;4354;49.832;10.746;2023-05-29T14:40:10;5.07;;;3.30;;
8632;SDS011;4354;49.832;10.746;2023-05-29T14:42:37;3.75;;;3.20;;
8632;SDS011;4354;49.832;10.746;2023-05-29T14:45:04;3.60;;;3.22;;
8632;SDS011;4354;49.832;10.746;2023-05-29T14:47:32;3.65;;;2.83;;
8632;SDS011;4354;49.832;10.746;2023-05-29T14:49:59;4.90;;;3.30;;
8632;SDS011;4354;49.832;10.746;2023-05-29T14:52:26;3.55;;;3.25;;
8632;SDS011;4354;49.832;10.746;2023-05-29T14:54:53;3.65;;;2.60;;
8632;SDS011;4354;49.832;10.746;2023-05-29T14:57:20;4.43;;;3.58;;
8632;SDS011;4354;49.832;10.746;2023-05-29T14:59:46;4.40;;;3.20;;
8632;SDS011;4354;49.832;10.746;2023-05-29T15:02:13;4.10;;;3.50;;
8632;SDS011;4354;49.832;10.746;2023-05-29T15:04:40;3.40;;;3.10;;
8632;SDS011;4354;49.832;10.746;2023-05-29T15:07:07;4.97;;;3.35;;
8632;SDS011;4354;49.832;10.746;2023-05-29T15:09:34;5.43;;;3.33;;
8632;SDS011;4354;49.832;10.746;2023-05-29T15:12:00;3.63;;;3.22;;
8632;SDS011;4354;49.832;10.746;2023-05-29T15:14:27;5.28;;;3.67;;
8632;SDS011;4354;49.832;10.746;2023-05-29T15:16:54;3.80;;;2.88;;
8632;SDS011;4354;49.832;10.746;2023-05-29T15:19:22;6.32;;;2.90;;
8632;SDS011;4354;49.832;10.746;2023-05-29T15:21:49;3.72;;;3.15;;
8632;SDS011;4354;49.832;10.746;2023-05-29T15:24:16;4.75;;;3.38;;
8632;SDS011;4354;49.832;10.746;2023-05-29T15:26:43;4.65;;;3.40;;
8632;SDS011;4354;49.832;10.746;2023-05-29T15:29:10;4.80;;;3.42;;
8632;SDS011;4354;49.832;10.746;2023-05-29T15:31:37;4.85;;;3.30;;
8632;SDS011;4354;49.832;10.746;2023-05-29T15:34:03;4.03;;;2.83;;
8632;SDS011;4354;49.832;10.746;2023-05-29T15:36:30;5.03;;;3.20;;
8632;SDS011;4354;49.832;10.746;2023-05-29T15:38:57;4.05;;;3.28;;